createdAt,value
2022-08-17T00:01:52.166Z,2.05
2022-08-17T00:04:19.321Z,2.30
2022-08-17T00:06:46.286Z,2.10
2022-08-17T00:09:19.084Z,2.30
2022-08-17T00:12:40.550Z,2.35
2022-08-17T00:14:35.934Z,1.70
2022-08-17T00:17:04.576Z,2.03
2022-08-17T00:19:32.616Z,1.85
2022-08-17T00:22:34.181Z,1.90
2022-08-17T00:24:49.727Z,2.70
2022-08-17T00:27:17.264Z,1.92
2022-08-17T00:29:45.686Z,2.50
2022-08-17T00:33:23.257Z,1.88
2022-08-17T00:35:00.265Z,2.00
2022-08-17T00:37:27.628Z,1.80
2022-08-17T00:39:54.282Z,2.10
2022-08-17T00:42:21.437Z,1.95
2022-08-17T00:44:48.712Z,2.10
2022-08-17T00:47:15.441Z,1.95
2022-08-17T00:49:42.499Z,2.28
2022-08-17T00:52:16.514Z,2.20
2022-08-17T00:54:47.069Z,2.00
2022-08-17T00:57:34.673Z,2.10
2022-08-17T01:00:03.876Z,2.40
2022-08-17T01:02:42.005Z,2.22
2022-08-17T01:05:15.124Z,2.50
2022-08-17T01:07:43.165Z,2.42
2022-08-17T01:10:58.953Z,1.92
2022-08-17T01:13:00.475Z,2.17
2022-08-17T01:15:27.155Z,2.33
2022-08-17T01:17:53.789Z,2.42
2022-08-17T01:20:20.908Z,2.67
2022-08-17T01:22:47.645Z,2.10
2022-08-17T01:25:15.177Z,2.45
2022-08-17T01:27:42.813Z,1.83
2022-08-17T01:30:57.829Z,2.20
2022-08-17T01:32:58.926Z,2.05
2022-08-17T01:35:25.800Z,2.15
2022-08-17T01:37:52.946Z,1.70
2022-08-17T01:40:23.401Z,1.52
2022-08-17T01:43:01.438Z,2.00
2022-08-17T01:45:33.001Z,2.13
2022-08-17T01:48:00.418Z,2.20
2022-08-17T01:50:31.400Z,2.35
2022-08-17T01:53:26.204Z,2.15
2022-08-17T01:55:56.908Z,2.40
2022-08-17T01:58:24.141Z,1.90
2022-08-17T02:01:00.021Z,1.98
2022-08-17T02:03:29.498Z,2.20
2022-08-17T02:05:56.340Z,1.92
2022-08-17T02:08:39.149Z,2.40
2022-08-17T02:11:12.308Z,2.20
2022-08-17T02:13:39.213Z,2.08
2022-08-17T02:16:06.589Z,1.90
2022-08-17T02:18:33.506Z,1.80
2022-08-17T02:21:00.344Z,1.83
2022-08-17T02:23:29.344Z,1.85
2022-08-17T02:25:58.949Z,2.22
2022-08-17T02:28:26.036Z,2.30
2022-08-17T02:31:00.746Z,2.17
2022-08-17T02:33:42.677Z,2.20
2022-08-17T02:36:11.760Z,2.78
2022-08-17T02:38:39.732Z,1.73
2022-08-17T02:41:06.941Z,1.95
2022-08-17T02:43:33.708Z,1.80
2022-08-17T02:46:00.436Z,1.90
2022-08-17T02:48:31.116Z,1.92
2022-08-17T02:50:59.350Z,2.30
2022-08-17T02:53:26.670Z,2.08
2022-08-17T02:55:53.886Z,1.75
2022-08-17T02:58:34.732Z,2.15
2022-08-17T03:01:07.301Z,2.05
2022-08-17T03:03:34.988Z,1.88
2022-08-17T03:06:01.978Z,2.35
2022-08-17T03:08:29.101Z,1.58
2022-08-17T03:10:56.268Z,2.20
2022-08-17T03:13:23.376Z,2.35
2022-08-17T03:15:50.651Z,2.20
2022-08-17T03:18:24.536Z,2.13
2022-08-17T03:20:53.786Z,2.40
2022-08-17T03:23:24.331Z,2.00
2022-08-17T03:25:53.424Z,2.35
2022-08-17T03:28:21.035Z,2.00
2022-08-17T03:30:47.688Z,1.90
2022-08-17T03:33:14.797Z,2.22
2022-08-17T03:35:42.412Z,2.13
2022-08-17T03:38:11.491Z,1.63
2022-08-17T03:40:58.989Z,1.77
2022-08-17T03:43:29.442Z,1.90
2022-08-17T03:46:35.300Z,1.88
2022-08-17T03:49:25.226Z,2.17
2022-08-17T03:52:11.304Z,1.77
2022-08-17T03:54:57.265Z,1.90
2022-08-17T03:57:24.577Z,2.15
2022-08-17T03:59:53.261Z,2.05
2022-08-17T04:02:32.876Z,1.90
2022-08-17T04:05:00.407Z,2.05
2022-08-17T04:07:29.297Z,2.30
2022-08-17T04:09:57.849Z,2.15
2022-08-17T04:12:25.324Z,1.90
2022-08-17T04:14:54.692Z,2.25
2022-08-17T04:17:23.546Z,1.73
2022-08-17T04:19:50.614Z,2.22
2022-08-17T04:22:32.945Z,2.83
2022-08-17T04:25:07.358Z,1.90
2022-08-17T04:27:34.484Z,2.10
2022-08-17T04:30:01.986Z,2.05
2022-08-17T04:33:05.446Z,1.85
2022-08-17T04:35:20.443Z,1.95
2022-08-17T04:37:47.535Z,2.40
2022-08-17T04:40:33.131Z,2.17
2022-08-17T04:43:13.913Z,2.03
2022-08-17T04:45:55.023Z,2.03
2022-08-17T04:48:35.625Z,2.53
2022-08-17T04:51:13.492Z,2.28
2022-08-17T04:53:42.893Z,1.80
2022-08-17T04:56:11.707Z,2.38
2022-08-17T04:58:44.705Z,1.88
2022-08-17T05:01:11.679Z,2.35
2022-08-17T05:03:38.556Z,1.98
2022-08-17T05:06:06.006Z,1.95
2022-08-17T05:08:32.971Z,1.80
2022-08-17T05:11:00.341Z,1.75
2022-08-17T05:13:29.626Z,1.65
2022-08-17T05:15:58.905Z,1.90
2022-08-17T05:18:25.824Z,1.75
2022-08-17T05:20:53.390Z,2.25
2022-08-17T05:23:21.601Z,1.83
2022-08-17T05:25:50.333Z,1.38
2022-08-17T05:28:19.959Z,2.10
2022-08-17T05:30:51.951Z,1.50
2022-08-17T05:33:20.505Z,2.00
2022-08-17T05:35:49.710Z,1.63
2022-08-17T05:38:18.474Z,1.55
2022-08-17T05:40:45.917Z,1.67
2022-08-17T05:43:22.036Z,2.20
2022-08-17T05:45:56.474Z,1.77
2022-08-17T05:48:35.671Z,1.80
2022-08-17T05:51:28.349Z,1.40
2022-08-17T05:54:04.802Z,1.83
2022-08-17T05:56:46.922Z,1.50
2022-08-17T05:59:42.118Z,1.60
2022-08-17T06:02:19.304Z,1.88
2022-08-17T06:05:27.166Z,1.27
2022-08-17T06:08:07.017Z,1.67
2022-08-17T06:10:53.120Z,1.50
2022-08-17T06:13:20.143Z,1.80
2022-08-17T06:16:32.880Z,1.20
2022-08-17T06:19:04.254Z,1.60
2022-08-17T06:21:36.471Z,1.25
2022-08-17T06:24:07.678Z,2.03
2022-08-17T06:26:42.762Z,1.40
2022-08-17T06:29:20.184Z,1.45
2022-08-17T06:31:46.882Z,1.35
2022-08-17T06:34:14.279Z,1.60
2022-08-17T06:36:57.458Z,1.42
2022-08-17T06:39:53.823Z,1.73
2022-08-17T06:42:59.946Z,1.38
2022-08-17T06:45:27.525Z,1.60
2022-08-17T06:48:06.938Z,1.60
2022-08-17T06:50:37.102Z,1.50
2022-08-17T06:53:11.070Z,1.33
2022-08-17T06:55:50.456Z,1.55
2022-08-17T06:58:21.179Z,1.90
2022-08-17T07:00:55.308Z,1.50
2022-08-17T07:03:37.633Z,1.60
2022-08-17T07:06:07.897Z,1.90
2022-08-17T07:08:44.948Z,1.60
2022-08-17T07:11:27.226Z,1.60
2022-08-17T07:14:27.160Z,1.40
2022-08-17T07:16:58.001Z,2.75
2022-08-17T07:19:27.167Z,1.45
2022-08-17T07:22:07.103Z,1.40
2022-08-17T07:24:37.164Z,1.50
2022-08-17T07:27:06.369Z,1.80
2022-08-17T07:29:38.494Z,1.70
2022-08-17T07:32:05.652Z,1.65
2022-08-17T07:34:52.688Z,1.50
2022-08-17T07:37:20.265Z,1.45
2022-08-17T07:39:59.650Z,1.70
2022-08-17T07:42:34.437Z,1.45
2022-08-17T07:45:22.918Z,1.55
2022-08-17T07:48:10.281Z,1.40
2022-08-17T07:50:42.409Z,1.17
2022-08-17T07:53:19.647Z,1.17
2022-08-17T07:55:46.820Z,1.33
2022-08-17T07:58:18.680Z,1.20
2022-08-17T08:00:46.156Z,1.23
2022-08-17T08:03:21.615Z,1.27
2022-08-17T08:06:01.201Z,1.40
2022-08-17T08:08:27.987Z,1.40
2022-08-17T08:11:07.403Z,1.30
2022-08-17T08:13:35.844Z,1.50
2022-08-17T08:16:19.870Z,1.55
2022-08-17T08:18:55.338Z,1.45
2022-08-17T08:21:32.886Z,1.25
2022-08-17T08:24:32.325Z,1.50
2022-08-17T08:27:08.104Z,1.38
2022-08-17T08:30:04.799Z,1.40
2022-08-17T08:32:47.906Z,1.50
2022-08-17T08:35:23.192Z,1.63
2022-08-17T08:38:07.473Z,1.60
2022-08-17T08:40:34.597Z,1.77
2022-08-17T08:43:22.577Z,1.42
2022-08-17T08:45:56.638Z,1.65
2022-08-17T08:48:53.657Z,1.48
2022-08-17T08:51:55.933Z,1.60
2022-08-17T08:54:36.619Z,1.95
2022-08-17T08:57:30.861Z,1.90
2022-08-17T09:00:14.908Z,1.67
2022-08-17T09:02:47.787Z,1.88
2022-08-17T09:05:22.037Z,1.60
2022-08-17T09:08:18.282Z,1.20
2022-08-17T09:10:52.155Z,1.60
2022-08-17T09:13:41.941Z,1.48
2022-08-17T09:16:17.767Z,1.35
2022-08-17T09:19:01.230Z,1.60
2022-08-17T09:22:00.448Z,1.70
2022-08-17T09:24:39.935Z,2.00
2022-08-17T09:27:06.989Z,1.80
2022-08-17T09:29:40.281Z,1.60
2022-08-17T09:32:17.804Z,1.63
2022-08-17T09:34:50.836Z,1.60
2022-08-17T09:37:34.750Z,1.80
2022-08-17T09:40:25.546Z,1.55
2022-08-17T09:43:25.825Z,1.60
2022-08-17T09:45:57.283Z,1.52
2022-08-17T09:48:23.880Z,1.58
2022-08-17T09:51:08.924Z,1.80
2022-08-17T09:53:37.958Z,1.58
2022-08-17T09:56:23.917Z,1.60
2022-08-17T09:59:13.113Z,1.60
2022-08-17T10:01:43.386Z,1.92
2022-08-17T10:04:32.123Z,2.03
2022-08-17T10:07:13.740Z,1.60
2022-08-17T10:09:48.644Z,1.80
2022-08-17T10:12:29.837Z,1.95
2022-08-17T10:15:22.308Z,1.60
2022-08-17T10:18:08.477Z,1.60
2022-08-17T10:21:21.306Z,1.45
2022-08-17T10:24:10.388Z,1.52
2022-08-17T10:26:56.954Z,1.73
2022-08-17T10:29:40.780Z,1.80
2022-08-17T10:32:34.367Z,1.77
2022-08-17T10:35:19.790Z,1.70
2022-08-17T10:37:49.997Z,1.70
2022-08-17T10:40:35.358Z,1.70
2022-08-17T10:43:35.247Z,2.08
2022-08-17T10:46:10.294Z,1.60
2022-08-17T10:49:14.704Z,1.52
2022-08-17T10:51:41.956Z,1.65
2022-08-17T10:54:37.475Z,2.00
2022-08-17T10:57:29.217Z,1.58
2022-08-17T10:59:57.592Z,1.50
2022-08-17T11:02:47.850Z,1.70
2022-08-17T11:05:54.035Z,1.50
2022-08-17T11:08:33.252Z,1.85
2022-08-17T11:11:20.115Z,1.50
2022-08-17T11:14:11.161Z,1.45
2022-08-17T11:16:52.204Z,1.48
2022-08-17T11:19:30.492Z,1.50
2022-08-17T11:22:15.190Z,1.40
2022-08-17T11:24:47.848Z,1.23
2022-08-17T11:27:31.023Z,1.70
2022-08-17T11:30:05.456Z,1.73
2022-08-17T11:32:54.385Z,1.95
2022-08-17T11:35:21.993Z,1.80
2022-08-17T11:38:02.806Z,1.80
2022-08-17T11:41:07.066Z,1.83
2022-08-17T11:43:47.928Z,1.92
2022-08-17T11:46:50.988Z,2.38
2022-08-17T11:49:47.628Z,2.20
2022-08-17T11:52:36.159Z,1.45
2022-08-17T11:55:33.635Z,1.45
2022-08-17T11:58:02.015Z,1.98
2022-08-17T12:00:47.220Z,1.70
2022-08-17T12:03:22.516Z,1.85
2022-08-17T12:05:50.948Z,2.10
2022-08-17T12:08:21.408Z,2.22
2022-08-17T12:11:07.361Z,1.95
2022-08-17T12:13:49.434Z,1.60
2022-08-17T12:16:18.437Z,1.70
2022-08-17T12:18:58.513Z,2.13
2022-08-17T12:21:50.095Z,1.77
2022-08-17T12:24:31.128Z,1.73
2022-08-17T12:27:02.468Z,1.52
2022-08-17T12:29:38.809Z,1.77
2022-08-17T12:32:07.204Z,1.65
2022-08-17T12:34:40.525Z,1.58
2022-08-17T12:37:15.271Z,1.77
2022-08-17T12:39:53.512Z,1.92
2022-08-17T12:42:27.242Z,1.60
2022-08-17T12:44:53.918Z,1.88
2022-08-17T12:47:23.024Z,1.60
2022-08-17T12:50:28.199Z,1.60
2022-08-17T12:53:01.620Z,2.10
2022-08-17T12:55:32.547Z,1.30
2022-08-17T12:58:02.218Z,1.83
2022-08-17T13:00:30.559Z,1.70
2022-08-17T13:03:06.019Z,1.65
2022-08-17T13:05:35.940Z,1.63
2022-08-17T13:08:06.611Z,1.58
2022-08-17T13:10:35.907Z,1.50
2022-08-17T13:13:20.748Z,1.40
2022-08-17T13:16:02.356Z,1.35
2022-08-17T13:18:32.040Z,1.48
2022-08-17T13:20:59.548Z,1.77
2022-08-17T13:23:29.167Z,1.88
2022-08-17T13:25:58.100Z,2.10
2022-08-17T13:28:35.653Z,2.80
2022-08-17T13:31:24.114Z,2.13
2022-08-17T13:33:51.217Z,1.60
2022-08-17T13:36:30.109Z,1.85
2022-08-17T13:39:07.110Z,1.38
2022-08-17T13:41:35.657Z,1.35
2022-08-17T13:44:04.261Z,1.33
2022-08-17T13:46:32.724Z,1.92
2022-08-17T13:49:04.673Z,1.40
2022-08-17T13:51:45.276Z,2.00
2022-08-17T13:54:26.649Z,1.52
2022-08-17T13:56:59.234Z,1.50
2022-08-17T13:59:53.521Z,1.55
2022-08-17T14:02:21.567Z,1.42
2022-08-17T14:04:49.024Z,1.63
2022-08-17T14:07:16.164Z,1.50
2022-08-17T14:09:48.550Z,1.48
2022-08-17T14:12:18.396Z,1.50
2022-08-17T14:14:45.518Z,1.50
2022-08-17T14:17:13.044Z,2.03
2022-08-17T14:19:39.703Z,1.33
2022-08-17T14:22:11.521Z,1.60
2022-08-17T14:24:44.714Z,1.30
2022-08-17T14:27:12.075Z,1.70
2022-08-17T14:29:41.072Z,1.90
2022-08-17T14:32:23.699Z,1.73
2022-08-17T14:34:51.647Z,1.40
2022-08-17T14:37:19.991Z,1.20
2022-08-17T14:39:47.133Z,1.30
2022-08-17T14:42:15.357Z,1.33
2022-08-17T14:44:42.041Z,1.60
2022-08-17T14:47:14.835Z,1.45
2022-08-17T14:49:42.148Z,1.50
2022-08-17T14:52:10.629Z,1.67
2022-08-17T14:54:38.048Z,1.67
2022-08-17T14:57:26.029Z,1.48
2022-08-17T14:59:55.595Z,1.35
2022-08-17T15:02:29.314Z,2.03
2022-08-17T15:05:02.717Z,1.40
2022-08-17T15:07:31.114Z,1.42
2022-08-17T15:10:02.064Z,1.40
2022-08-17T15:12:33.211Z,1.35
2022-08-17T15:15:01.319Z,1.40
2022-08-17T15:17:54.564Z,1.50
2022-08-17T15:20:18.355Z,1.55
2022-08-17T15:22:46.543Z,1.30
2022-08-17T15:25:14.300Z,1.42
2022-08-17T15:27:41.446Z,1.38
2022-08-17T15:30:09.365Z,1.42
2022-08-17T15:32:38.473Z,1.67
2022-08-17T15:35:06.608Z,1.30
2022-08-17T15:37:33.572Z,1.58
2022-08-17T15:40:03.372Z,1.45
2022-08-17T15:42:30.115Z,1.48
2022-08-17T15:44:57.379Z,1.30
2022-08-17T15:47:24.824Z,1.60
2022-08-17T15:49:54.432Z,1.60
2022-08-17T15:52:26.875Z,1.55
2022-08-17T15:54:59.539Z,1.58
2022-08-17T15:57:26.920Z,2.42
2022-08-17T15:59:59.058Z,1.40
2022-08-17T16:03:14.651Z,2.97
2022-08-17T16:05:21.926Z,1.70
2022-08-17T16:07:51.731Z,1.17
2022-08-17T16:10:19.446Z,1.63
2022-08-17T16:12:47.622Z,1.10
2022-08-17T16:15:16.136Z,1.50
2022-08-17T16:17:42.932Z,1.60
2022-08-17T16:20:20.597Z,1.65
2022-08-17T16:22:50.207Z,1.45
2022-08-17T16:25:19.531Z,1.65
2022-08-17T16:27:50.417Z,1.00
2022-08-17T16:30:18.029Z,1.13
2022-08-17T16:32:45.768Z,1.52
2022-08-17T16:35:17.211Z,1.75
2022-08-17T16:37:45.664Z,1.40
2022-08-17T16:40:15.229Z,1.35
2022-08-17T16:42:45.724Z,1.27
2022-08-17T16:45:19.743Z,1.63
2022-08-17T16:47:48.213Z,1.70
2022-08-17T16:50:17.592Z,1.42
2022-08-17T16:52:48.398Z,1.40
2022-08-17T16:55:16.860Z,1.77
2022-08-17T16:57:50.460Z,1.50
2022-08-17T17:00:19.438Z,1.40
2022-08-17T17:02:48.201Z,1.40
2022-08-17T17:05:22.055Z,1.83
2022-08-17T17:08:33.177Z,1.30
2022-08-17T17:11:09.435Z,1.23
2022-08-17T17:13:36.471Z,1.30
2022-08-17T17:16:28.461Z,1.00
2022-08-17T17:19:04.653Z,1.70
2022-08-17T17:21:36.390Z,1.40
2022-08-17T17:24:08.504Z,1.70
2022-08-17T17:26:43.222Z,1.50
2022-08-17T17:29:10.358Z,1.05
2022-08-17T17:31:45.139Z,1.30
2022-08-17T17:34:16.117Z,1.88
2022-08-17T17:36:50.116Z,1.40
2022-08-17T17:39:24.637Z,1.92
2022-08-17T17:41:56.805Z,1.35
2022-08-17T17:44:33.009Z,1.33
2022-08-17T17:47:02.061Z,1.40
2022-08-17T17:49:48.619Z,1.30
2022-08-17T17:52:38.658Z,1.50
2022-08-17T17:55:35.050Z,1.23
2022-08-17T17:58:32.297Z,1.70
2022-08-17T18:01:37.847Z,1.20
2022-08-17T18:04:28.692Z,1.83
2022-08-17T18:07:15.175Z,1.65
2022-08-17T18:10:29.497Z,1.55
2022-08-17T18:13:10.966Z,1.35
2022-08-17T18:15:50.997Z,1.38
2022-08-17T18:18:17.603Z,1.60
2022-08-17T18:20:53.703Z,1.17
2022-08-17T18:23:28.147Z,1.67
2022-08-17T18:25:56.174Z,1.30
2022-08-17T18:28:43.153Z,1.38
2022-08-17T18:31:28.311Z,1.52
2022-08-17T18:34:36.086Z,1.23
2022-08-17T18:37:05.047Z,1.63
2022-08-17T18:39:32.130Z,1.35
2022-08-17T18:42:00.634Z,1.40
2022-08-17T18:44:35.563Z,1.15
2022-08-17T18:47:22.979Z,1.20
2022-08-17T18:49:56.245Z,1.20
2022-08-17T18:52:23.458Z,1.63
2022-08-17T18:55:09.514Z,1.30
2022-08-17T18:57:38.533Z,1.40
2022-08-17T19:00:20.147Z,1.58
2022-08-17T19:02:54.741Z,1.85
2022-08-17T19:05:28.042Z,1.70
2022-08-17T19:07:55.368Z,1.25
2022-08-17T19:10:28.759Z,1.70
2022-08-17T19:13:11.302Z,1.60
2022-08-17T19:16:14.176Z,1.50
2022-08-17T19:18:40.438Z,1.23
2022-08-17T19:21:16.301Z,1.63
2022-08-17T19:24:06.250Z,1.38
2022-08-17T19:26:50.714Z,1.50
2022-08-17T19:29:41.438Z,1.90
2022-08-17T19:32:10.285Z,1.35
2022-08-17T19:34:38.951Z,1.88
2022-08-17T19:37:28.525Z,2.00
2022-08-17T19:40:09.838Z,2.00
2022-08-17T19:42:49.818Z,1.80
2022-08-17T19:45:34.618Z,1.98
2022-08-17T19:48:35.389Z,1.45
2022-08-17T19:51:05.994Z,1.40
2022-08-17T19:54:05.872Z,1.50
2022-08-17T19:56:47.449Z,1.65
2022-08-17T19:59:28.226Z,1.80
2022-08-17T20:02:15.238Z,1.35
2022-08-17T20:04:45.473Z,1.42
2022-08-17T20:07:20.640Z,1.85
2022-08-17T20:09:50.278Z,1.70
2022-08-17T20:12:20.896Z,1.90
2022-08-17T20:14:57.160Z,1.73
2022-08-17T20:17:32.325Z,1.65
2022-08-17T20:20:07.284Z,1.60
2022-08-17T20:22:54.194Z,1.88
2022-08-17T20:25:46.053Z,1.90
2022-08-17T20:28:23.498Z,1.90
2022-08-17T20:30:51.199Z,2.15
2022-08-17T20:33:26.338Z,1.65
2022-08-17T20:36:05.480Z,1.67
2022-08-17T20:38:51.092Z,2.38
2022-08-17T20:41:26.421Z,2.92
2022-08-17T20:43:59.108Z,3.30
2022-08-17T20:46:38.264Z,3.20
2022-08-17T20:49:16.688Z,3.10
2022-08-17T20:52:09.714Z,2.17
2022-08-17T20:54:42.583Z,2.55
2022-08-17T20:57:14.082Z,2.65
2022-08-17T20:59:44.233Z,2.90
2022-08-17T21:02:19.694Z,3.22
2022-08-17T21:04:59.813Z,2.50
2022-08-17T21:07:43.728Z,2.50
2022-08-17T21:10:12.555Z,2.67
2022-08-17T21:13:04.572Z,2.13
2022-08-17T21:15:37.062Z,2.53
2022-08-17T21:18:41.331Z,2.20
2022-08-17T21:21:19.940Z,2.60
2022-08-17T21:24:21.951Z,1.92
2022-08-17T21:27:01.461Z,2.13
2022-08-17T21:29:33.796Z,2.03
2022-08-17T21:32:03.653Z,2.15
2022-08-17T21:34:37.752Z,2.60
2022-08-17T21:37:23.487Z,2.88
2022-08-17T21:39:55.469Z,3.00
2022-08-17T21:42:29.982Z,2.60
2022-08-17T21:45:09.134Z,2.30
2022-08-17T21:47:43.374Z,2.22
2022-08-17T21:50:19.362Z,2.40
2022-08-17T21:52:47.658Z,2.50
2022-08-17T21:55:40.516Z,2.22
2022-08-17T21:58:19.930Z,2.38
2022-08-17T22:00:46.665Z,2.30
2022-08-17T22:03:28.613Z,2.10
2022-08-17T22:05:55.285Z,1.90
2022-08-17T22:08:25.813Z,2.40
2022-08-17T22:11:01.831Z,1.77
2022-08-17T22:13:29.821Z,2.10
2022-08-17T22:16:29.049Z,2.00
2022-08-17T22:18:58.551Z,2.03
2022-08-17T22:21:25.633Z,2.30
2022-08-17T22:24:05.206Z,2.00
2022-08-17T22:26:50.995Z,2.00
2022-08-17T22:29:47.904Z,1.98
2022-08-17T22:32:51.362Z,2.10
2022-08-17T22:35:24.519Z,2.10
2022-08-17T22:37:51.737Z,1.77
2022-08-17T22:40:30.438Z,1.75
2022-08-17T22:42:58.567Z,1.80
2022-08-17T22:45:26.691Z,1.45
2022-08-17T22:47:59.768Z,2.10
2022-08-17T22:50:30.318Z,2.08
2022-08-17T22:53:39.497Z,2.75
2022-08-17T22:56:25.228Z,2.03
2022-08-17T22:59:13.982Z,2.80
2022-08-17T23:01:41.426Z,1.75
2022-08-17T23:04:29.990Z,2.20
2022-08-17T23:06:56.767Z,2.05
2022-08-17T23:09:23.401Z,2.80
2022-08-17T23:11:58.483Z,2.42
2022-08-17T23:14:31.408Z,2.92
2022-08-17T23:16:59.303Z,2.20
2022-08-17T23:19:27.716Z,2.50
2022-08-17T23:21:56.153Z,2.70
2022-08-17T23:24:26.858Z,2.90
2022-08-17T23:26:57.064Z,2.25
2022-08-17T23:29:24.769Z,2.80
2022-08-17T23:31:51.970Z,2.30
2022-08-17T23:34:18.968Z,2.67
2022-08-17T23:36:53.080Z,2.72
2022-08-17T23:39:24.606Z,2.67
2022-08-17T23:41:55.154Z,2.70
2022-08-17T23:44:25.110Z,2.45
2022-08-17T23:46:52.434Z,2.08
2022-08-17T23:49:20.005Z,1.92
2022-08-17T23:51:48.457Z,2.50
2022-08-17T23:54:20.654Z,2.20
2022-08-17T23:56:47.759Z,2.15
2022-08-17T23:59:15.940Z,2.38
